Retalhuleu Airport
MGRT : now visible

Airfield :











YOU CAN JOIN US ON...

 
LOGIN :

Register | Disclaimer

   EN    FR    IT 

 









Legend :    VFR   Marginal VFR   IFR   Intensive IFR   Very Intensive IFR
Visi :
Ceiling :
>= 8 km
>= 3000ft
5 to 8 km
1000 to 3000 ft
1500m to 5 km
500 to 1000 ft
800 to 1500m
200 to 500 ft
< 800m
< 200 ft
Symbols :   Thunderstorms  Fog  Heavy snow  Heavy precipitations  Wind > 20 kt






- Airport Elevation : 656 ft
- IATA code : RER


MGRT - Retalhuleu

CURRENT METAR :
  • 152300Z 12006KT 8000 -DZ SCT016 OVC080 24/23 Q1012 A2988 VOL,SANTA MARIA Y SANTIAGUITO EN ACTIVIDAD

EXPIRED METARs :
  • 152200Z 09008KT 8000 -DZ SCT015 OVC080 24/23 Q1011 A2985 VOL,SANTA MARIA Y SANTIAGUITO EN ACTIVIDAD
  • 152100Z 09012KT 7000 +DZ BKN015 OVC080 24/23 Q1011 A2985 VOL,SANTA MARIA Y SANTIAGUITO EN ACTIVIDAD

TAF N/A



MET'MAP, your aeronautical weather chart ! - Copyright ORBIFLY December 2007 - Disclaimer

ORBIFLY MET'MAP TEAM :

Programming & Development : Alexandra Zaïnal
Concept & Development : Baudouin d'Aumeries
Co-Development & Prog : Marc-Olivier Méhu
Technical & hardware support : Manuel Goepfert

Contact : metmap@orbifly.com




SOURCES & CREDITS :

   NOAA       Earth
Advisory